Time;durP1;ratioP1;P1;durP2;ratioP2;P2;SDS_P1;SDS_P2;PMS_P1;PMS_P2;Temp;Humidity;BMP_temperature;BMP_pressure;BME280_temperature;BME280_humidity;BME280_pressure;Samples;Min_cycle;Max_cycle;Signal;HPM_P1;HPM_P2
2022/08/23 00:01:33;;;;;;;3.13;1.40;;;17.80;99.90;;;;;;6221123;23;20023;-93
2022/08/23 00:04:05;;;;;;;4.00;1.50;;;17.80;99.90;;;;;;6221115;23;20020;-93
2022/08/23 00:06:31;;;;;;;2.83;1.38;;;17.80;99.90;;;;;;6220858;23;20027;-92
2022/08/23 00:08:57;;;;;;;;;;;17.70;99.90;;;;;;6220969;23;20031;-93
2022/08/23 00:11:35;;;;;;;4.82;1.70;;;17.70;99.90;;;;;;6220937;23;19919;-93
2022/08/23 00:14:07;;;;;;;4.15;1.77;;;17.70;99.90;;;;;;6220722;23;20094;-92
2022/08/23 00:16:34;;;;;;;3.60;1.65;;;17.70;99.90;;;;;;6220698;23;20449;-93
2022/08/23 00:19:01;;;;;;;4.63;2.15;;;17.70;99.90;;;;;;6220785;23;20012;-92
2022/08/23 00:21:28;;;;;;;3.97;2.20;;;17.70;99.90;;;;;;6220707;23;20020;-93
2022/08/23 00:24:05;;;;;;;4.90;2.20;;;17.70;99.90;;;;;;6220482;23;20012;-93
2022/08/23 00:26:51;;;;;;;4.65;2.45;;;17.70;99.90;;;;;;6220984;23;20059;-93
2022/08/23 00:29:18;;;;;;;4.68;1.88;;;17.70;99.90;;;;;;6220799;23;20181;-92
2022/08/23 00:32:24;;;;;;;4.15;1.40;;;17.60;99.90;;;;;;6220631;23;20346;-93
2022/08/23 00:34:53;;;;;;;2.45;1.08;;;17.60;99.90;;;;;;6217647;23;20023;-92
2022/08/23 00:37:22;;;;;;;4.15;1.60;;;17.60;99.90;;;;;;6220572;23;20034;-93
2022/08/23 00:39:50;;;;;;;4.53;1.40;;;17.50;99.90;;;;;;6220001;23;20016;-93
2022/08/23 00:48:00;;;;;;;4.55;1.95;;;17.50;99.90;;;;;;6245774;23;20031;-93
2022/08/23 00:50:36;;;;;;;4.88;2.22;;;17.50;99.90;;;;;;6220581;23;20039;-93
2022/08/23 00:53:10;;;;;;;;;;;17.50;99.90;;;;;;6221047;23;20038;-93
2022/08/23 00:55:38;;;;;;;4.15;1.90;;;17.40;99.90;;;;;;6220863;23;19930;-93
2022/08/23 00:58:40;;;;;;;;;;;;;;;;;;;;;
2022/08/23 01:01:07;;;;;;;3.50;1.60;;;17.40;99.90;;;;;;6245732;23;20027;-93
2022/08/23 01:43:33;;;;;;;4.15;2.10;;;16.70;99.90;;;;;;6215921;22;20025;-91
2022/08/23 01:46:19;;;;;;;5.28;2.05;;;16.70;99.90;;;;;;6189942;23;20040;-91
2022/08/23 01:48:50;;;;;;;3.70;1.90;;;16.60;99.90;;;;;;6190173;23;20024;-92
2022/08/23 01:51:18;;;;;;;4.00;2.20;;;16.70;99.90;;;;;;6190009;23;20028;-91
2022/08/23 01:53:45;;;;;;;3.90;2.08;;;16.70;99.90;;;;;;6190218;23;20025;-91
2022/08/23 01:56:12;;;;;;;3.70;2.00;;;16.70;99.90;;;;;;6190304;23;20016;-91
2022/08/23 02:21:57;;;;;;;3.67;1.77;;;16.40;99.90;;;;;;6276762;22;20023;-91
2022/08/23 02:24:24;;;;;;;3.10;1.55;;;16.40;99.90;;;;;;6250329;22;20027;-92
2022/08/23 02:26:56;;;;;;;4.32;1.83;;;16.40;99.90;;;;;;6250348;22;20022;-91
2022/08/23 03:23:45;;;;;;;3.65;1.70;;;16.10;99.90;;;;;;6278216;22;20341;-90
2022/08/23 03:26:12;;;;;;;2.85;1.38;;;16.10;99.90;;;;;;6251758;22;20026;-91
2022/08/23 03:28:39;;;;;;;3.35;1.35;;;16.10;99.90;;;;;;6251658;22;20015;-91
2022/08/23 03:31:06;;;;;;;3.20;1.50;;;16.00;99.90;;;;;;6251384;22;20031;-91
2022/08/23 03:33:33;;;;;;;2.88;1.63;;;16.10;99.90;;;;;;6251652;22;20110;-91
2022/08/23 03:36:01;;;;;;;;;;;16.10;99.90;;;;;;6251938;22;20453;-93
2022/08/23 03:38:27;;;;;;;2.50;1.20;;;16.10;99.90;;;;;;6251374;22;19919;-92
2022/08/23 03:40:55;;;;;;;3.22;1.20;;;16.10;99.90;;;;;;6251633;22;20019;-92
2022/08/23 03:58:56;;;;;;;2.25;1.05;;;16.00;99.90;;;;;;6272840;22;20024;-92
2022/08/23 04:01:54;;;;;;;3.70;1.23;;;16.00;99.90;;;;;;6220084;23;20024;-92
2022/08/23 04:04:48;;;;;;;2.97;1.40;;;15.90;99.90;;;;;;6186279;23;20078;-93
2022/08/23 04:07:19;;;;;;;2.55;1.30;;;15.90;99.90;;;;;;6204213;23;20024;-92
2022/08/23 04:09:45;;;;;;;3.30;1.45;;;15.90;99.90;;;;;;6220792;23;20050;-91
2022/08/23 04:12:12;;;;;;;4.00;1.90;;;15.80;99.90;;;;;;6195931;23;20384;-92
2022/08/23 04:14:38;;;;;;;3.25;1.63;;;15.80;99.90;;;;;;6220832;23;20158;-94
2022/08/23 04:17:04;;;;;;;3.50;1.63;;;15.90;99.90;;;;;;6220736;23;20131;-92
2022/08/23 04:19:30;;;;;;;3.85;1.80;;;15.90;99.90;;;;;;6220851;23;20540;-93
2022/08/23 04:21:56;;;;;;;2.97;1.38;;;15.90;99.90;;;;;;6195901;23;20020;-92
2022/08/23 04:24:23;;;;;;;3.03;1.38;;;16.00;99.90;;;;;;6195985;23;20050;-92
2022/08/23 04:27:07;;;;;;;2.85;1.30;;;16.00;99.90;;;;;;6195431;23;20016;-92
2022/08/23 04:30:35;;;;;;;;;;;;;;;;;;;;;
2022/08/23 04:33:04;;;;;;;2.80;1.23;;;16.00;99.90;;;;;;6175795;23;20090;-92
2022/08/23 04:35:29;;;;;;;2.97;1.45;;;15.90;99.90;;;;;;6195936;23;20458;-93
2022/08/23 04:37:55;;;;;;;4.03;1.80;;;15.80;99.90;;;;;;6196254;23;20020;-92
2022/08/23 04:44:51;;;;;;;5.05;2.63;;;15.70;99.90;;;;;;6177450;23;20063;-92
2022/08/23 04:47:17;;;;;;;4.90;2.35;;;15.60;99.90;;;;;;6072158;23;20364;-92
2022/08/23 04:53:12;;;;;;;6.85;4.22;;;15.60;99.90;;;;;;6207743;23;20028;-93
2022/08/23 04:55:41;;;;;;;7.82;4.15;;;15.60;99.90;;;;;;6196081;23;20027;-92
2022/08/23 04:58:07;;;;;;;7.38;4.47;;;15.60;99.90;;;;;;6194783;23;20020;-92
2022/08/23 05:00:33;;;;;;;7.43;4.18;;;15.70;99.90;;;;;;6242273;22;20023;-93
2022/08/23 05:03:04;;;;;;;6.68;4.07;;;15.70;99.90;;;;;;6250652;22;20024;-92
2022/08/23 05:05:40;;;;;;;7.95;3.50;;;15.70;99.90;;;;;;6250427;22;20015;-93
2022/08/23 05:08:06;;;;;;;6.95;4.10;;;15.80;99.90;;;;;;6250759;22;20024;-92
2022/08/23 05:40:07;;;;;;;6.70;3.53;;;16.20;99.90;;;;;;6282930;22;20023;-92
2022/08/23 05:42:33;;;;;;;6.85;4.38;;;16.30;99.90;;;;;;6255828;22;20106;-92
2022/08/23 05:44:59;;;;;;;6.78;4.10;;;16.30;99.90;;;;;;6255947;22;20452;-93
2022/08/23 05:47:26;;;;;;;6.55;3.70;;;16.30;99.90;;;;;;6255412;22;20022;-92
2022/08/23 05:49:52;;;;;;;7.63;4.35;;;16.40;99.90;;;;;;6255543;22;20026;-92
2022/08/23 05:52:18;;;;;;;6.75;3.92;;;16.40;99.90;;;;;;6255500;22;20016;-91
2022/08/23 06:12:51;;;;;;;8.52;5.40;;;17.90;99.90;;;;;;6246326;22;20031;-91
2022/08/23 06:15:31;;;;;;;9.82;5.88;;;18.20;99.90;;;;;;6194768;23;20028;-91
2022/08/23 06:17:56;;;;;;;8.77;5.70;;;18.30;99.90;;;;;;6194602;23;20020;-91
2022/08/23 06:20:22;;;;;;;7.80;5.20;;;18.30;99.90;;;;;;6194614;23;20020;-91
2022/08/23 06:22:48;;;;;;;10.25;6.97;;;18.20;99.90;;;;;;6195015;23;20541;-91
2022/08/23 06:25:13;;;;;;;9.35;6.13;;;18.20;99.90;;;;;;6195176;23;20098;-91
2022/08/23 06:27:39;;;;;;;9.07;5.68;;;18.10;99.90;;;;;;6194527;23;20074;-91
2022/08/23 06:30:07;;;;;;;11.80;6.90;;;18.10;99.90;;;;;;6194859;23;20083;-91
2022/08/23 06:32:33;;;;;;;11.82;6.65;;;18.10;99.90;;;;;;6195036;23;20043;-90
2022/08/23 06:34:59;;;;;;;9.25;6.18;;;18.20;99.90;;;;;;6194821;23;20084;-91
2022/08/23 06:37:25;;;;;;;11.32;7.05;;;18.60;99.90;;;;;;6194762;23;20076;-90
2022/08/23 06:40:03;;;;;;;9.10;6.00;;;19.40;99.90;;;;;;6194435;23;20016;-90
2022/08/23 06:42:30;;;;;;;9.85;6.78;;;20.40;99.90;;;;;;6194539;23;20027;-91
2022/08/23 06:44:56;;;;;;;8.85;6.22;;;21.50;99.90;;;;;;6195695;23;20091;-90
2022/08/23 06:47:25;;;;;;;9.00;6.28;;;22.40;99.90;;;;;;6196159;23;20051;-91
2022/08/23 06:49:53;;;;;;;9.23;5.70;;;23.00;99.90;;;;;;6221452;23;20020;-91
2022/08/23 06:52:19;;;;;;;8.40;5.32;;;23.00;99.90;;;;;;6196308;23;20091;-90
2022/08/23 06:54:45;;;;;;;8.25;5.72;;;22.70;99.90;;;;;;6196149;23;20024;-90
2022/08/23 06:57:14;;;;;;;8.55;5.78;;;22.30;99.90;;;;;;6196437;23;20523;-90
2022/08/23 06:59:40;;;;;;;8.27;5.57;;;21.90;99.90;;;;;;6196395;23;20032;-90
2022/08/23 07:02:09;;;;;;;8.00;5.47;;;21.50;99.90;;;;;;6196175;23;20012;-90
2022/08/23 07:04:41;;;;;;;8.57;5.78;;;21.20;99.90;;;;;;6196142;23;20024;-91
2022/08/23 07:07:08;;;;;;;9.70;5.93;;;20.90;99.90;;;;;;6196129;23;20016;-91
2022/08/23 07:09:34;;;;;;;7.82;5.32;;;20.70;99.90;;;;;;6196279;23;20457;-91
2022/08/23 07:12:00;;;;;;;8.15;5.68;;;20.60;99.90;;;;;;6196546;23;20024;-91
2022/08/23 07:14:27;;;;;;;8.65;5.95;;;20.40;99.90;;;;;;6196063;23;20060;-91
2022/08/23 07:17:00;;;;;;;8.45;6.03;;;20.30;99.90;;;;;;6196034;23;20047;-91
2022/08/23 07:19:29;;;;;;;9.38;6.18;;;20.20;99.90;;;;;;6196191;23;20027;-92
2022/08/23 07:21:55;;;;;;;9.82;5.88;;;20.10;99.90;;;;;;6196078;23;20086;-90
2022/08/23 07:24:22;;;;;;;7.70;5.38;;;20.10;99.90;;;;;;6196038;23;20095;-93
2022/08/23 07:26:48;;;;;;;;;;;20.10;99.90;;;;;;6196640;23;20437;-92
2022/08/23 07:29:15;;;;;;;6.95;5.10;;;20.00;99.90;;;;;;6196352;23;19922;-91
2022/08/23 07:31:44;;;;;;;7.13;5.13;;;20.10;99.90;;;;;;6196213;23;20024;-92
2022/08/23 07:34:10;;;;;;;8.50;5.55;;;20.10;99.90;;;;;;6196463;23;20024;-92
2022/08/23 07:36:39;;;;;;;7.57;5.07;;;20.10;99.90;;;;;;6195930;23;20050;-91
2022/08/23 07:39:06;;;;;;;8.65;5.88;;;20.10;99.90;;;;;;6196291;23;20020;-91
2022/08/23 07:41:37;;;;;;;8.93;6.10;;;20.20;99.90;;;;;;6195769;23;20023;-91
2022/08/23 07:44:08;;;;;;;8.07;5.13;;;20.20;99.90;;;;;;6196057;23;20016;-90
2022/08/23 07:46:35;;;;;;;7.85;5.40;;;20.30;99.90;;;;;;6195820;23;20249;-90
2022/08/23 07:49:03;;;;;;;8.05;5.32;;;20.30;99.90;;;;;;6196043;23;20024;-90
2022/08/23 07:51:31;;;;;;;8.50;5.78;;;20.30;99.90;;;;;;6195892;23;20346;-89
2022/08/23 07:53:57;;;;;;;8.15;5.25;;;20.30;99.90;;;;;;6196460;23;20082;-90
2022/08/23 07:56:24;;;;;;;6.70;4.78;;;20.30;99.90;;;;;;6195409;23;20020;-91
2022/08/23 07:58:52;;;;;;;8.50;4.85;;;20.40;99.90;;;;;;6220925;23;20469;-91
2022/08/23 08:01:28;;;;;;;8.23;5.20;;;20.40;99.90;;;;;;6197611;23;20016;-91
2022/08/23 08:04:09;;;;;;;;;;;;;;;;;;;;;
2022/08/23 08:06:58;;;;;;;6.85;4.55;;;20.50;99.90;;;;;;6220891;23;20020;-91
2022/08/23 08:09:36;;;;;;;6.75;4.05;;;20.50;99.90;;;;;;6196288;23;20047;-91
2022/08/23 08:12:05;;;;;;;8.05;5.35;;;20.60;99.90;;;;;;6195855;23;20012;-91
2022/08/23 08:14:30;;;;;;;5.90;4.05;;;20.60;99.90;;;;;;6195803;23;20103;-91
2022/08/23 08:16:59;;;;;;;7.55;4.35;;;20.70;99.90;;;;;;6195836;23;20049;-91
2022/08/23 08:19:25;;;;;;;6.40;4.10;;;20.70;99.90;;;;;;6196148;23;20338;-91
2022/08/23 08:21:56;;;;;;;5.95;3.97;;;20.80;99.90;;;;;;6195946;23;20016;-90
2022/08/23 08:24:21;;;;;;;6.80;4.45;;;20.80;99.90;;;;;;6195784;23;20099;-90
2022/08/23 08:26:48;;;;;;;5.43;3.80;;;20.90;99.90;;;;;;6196088;23;20020;-90
2022/08/23 08:29:14;;;;;;;;;;;20.90;99.90;;;;;;6196366;23;20031;-90
2022/08/23 08:31:42;;;;;;;5.53;3.90;;;21.00;99.90;;;;;;6196207;23;20249;-91
2022/08/23 08:34:11;;;;;;;6.15;3.55;;;21.10;99.90;;;;;;6195466;23;20016;-91
2022/08/23 08:36:43;;;;;;;5.50;3.30;;;21.10;99.90;;;;;;6194621;23;20043;-91
2022/08/23 08:39:12;;;;;;;5.28;3.05;;;21.20;99.90;;;;;;6195476;23;20019;-92
2022/08/23 08:42:12;;;;;;;5.80;3.22;;;21.20;99.90;;;;;;6195678;23;20020;-92
2022/08/23 08:44:55;;;;;;;5.22;3.40;;;21.30;99.90;;;;;;6195385;23;20422;-91
2022/08/23 08:47:39;;;;;;;5.15;3.15;;;21.30;99.90;;;;;;6196222;23;20059;-95
2022/08/23 08:50:13;;;;;;;5.93;3.83;;;21.40;99.90;;;;;;6195391;23;20059;-91
2022/08/23 08:52:43;;;;;;;6.47;3.50;;;21.40;99.90;;;;;;6195095;23;20075;-90
2022/08/23 08:55:24;;;;;;;5.68;3.38;;;21.50;99.90;;;;;;6194730;23;20024;-91
2022/08/23 09:23:47;;;;;;;5.07;3.17;;;22.00;99.90;;;;;;6246649;22;20020;-91
2022/08/23 09:51:41;;;;;;;5.65;2.70;;;22.80;99.90;;;;;;6245430;22;20024;-90
2022/08/23 09:54:16;;;;;;;4.47;2.40;;;22.80;99.90;;;;;;6193732;23;20103;-90
2022/08/23 09:56:48;;;;;;;5.40;2.40;;;22.80;99.90;;;;;;6194590;23;20016;-91
2022/08/23 09:59:26;;;;;;;3.88;2.25;;;22.90;99.90;;;;;;6194327;23;20102;-93
2022/08/23 10:01:58;;;;;;;4.70;2.55;;;22.90;99.90;;;;;;6193674;23;20341;-92
2022/08/23 10:04:36;;;;;;;4.57;2.97;;;23.00;99.90;;;;;;6194749;23;20020;-91
2022/08/23 10:07:23;;;;;;;5.07;2.50;;;23.10;99.90;;;;;;6194711;23;20016;-91
2022/08/23 10:09:49;;;;;;;4.03;2.38;;;23.10;99.90;;;;;;6194855;23;20086;-91
2022/08/23 10:12:14;;;;;;;4.72;2.95;;;23.20;99.90;;;;;;6195096;23;20020;-91
2022/08/23 10:14:41;;;;;;;4.32;2.85;;;23.30;99.90;;;;;;6194421;23;20066;-89
2022/08/23 10:17:58;;;;;;;5.85;2.85;;;23.30;99.90;;;;;;6194677;23;20020;-89
2022/08/23 10:20:28;;;;;;;5.30;2.95;;;23.40;99.90;;;;;;6221095;23;20024;-89
2022/08/23 10:22:59;;;;;;;5.57;2.53;;;23.60;99.90;;;;;;6196595;23;20338;-93
2022/08/23 10:25:50;;;;;;;4.90;2.72;;;23.60;99.90;;;;;;6196439;23;20076;-89
2022/08/23 10:32:09;;;;;;;4.45;2.20;;;23.90;99.90;;;;;;6221360;23;20021;-92
2022/08/23 10:35:05;;;;;;;5.03;2.17;;;24.00;99.90;;;;;;6102050;23;20057;-92
2022/08/23 10:38:07;;;;;;;3.67;1.80;;;24.20;99.90;;;;;;6102075;23;20108;-92
2022/08/23 10:40:47;;;;;;;4.20;2.17;;;24.40;99.90;;;;;;6211599;23;20020;-89
2022/08/23 10:43:24;;;;;;;4.53;2.30;;;24.60;99.90;;;;;;6195835;23;20016;-92
2022/08/23 10:46:01;;;;;;;4.50;1.93;;;24.70;99.90;;;;;;6155591;23;20064;-92
2022/08/23 10:49:13;;;;;;;2.78;1.63;;;24.80;99.90;;;;;;6155502;23;20026;-92
2022/08/23 10:51:44;;;;;;;4.70;1.90;;;25.00;99.90;;;;;;6105325;23;20028;-92
2022/08/23 10:54:14;;;;;;;3.78;2.00;;;25.10;99.90;;;;;;6160275;23;20032;-93
2022/08/23 10:57:03;;;;;;;4.60;2.35;;;25.20;99.90;;;;;;6136073;23;20023;-92
2022/08/23 10:59:31;;;;;;;4.25;1.70;;;25.20;99.90;;;;;;6185262;23;20170;-91
2022/08/23 15:07:25;;;;;;;3.33;1.30;;;27.00;87.60;;;;;;6245620;23;20016;-90
2022/08/23 17:11:09;;;;;;;10.63;7.75;;;25.70;95.10;;;;;;6245703;22;20505;-89
2022/08/23 17:14:11;;;;;;;8.32;6.68;;;25.60;95.70;;;;;;6194771;23;20031;-89
2022/08/23 17:21:15;;;;;;;;;;;;;;;;;;;;;
2022/08/23 22:15:50;;;;;;;25.73;17.02;;;21.00;99.90;;;;;;6245632;22;20024;-89
2022/08/23 22:18:25;;;;;;;24.27;16.67;;;21.00;99.90;;;;;;6197045;23;20102;-90
2022/08/23 22:22:07;;;;;;;25.52;16.92;;;21.00;99.90;;;;;;6222815;23;20031;-89
2022/08/23 22:24:30;;;;;;;23.75;16.33;;;21.00;99.90;;;;;;6213164;23;20077;-90
2022/08/23 22:27:51;;;;;;;25.50;16.77;;;20.90;99.90;;;;;;6198270;23;20102;-93
2022/08/23 22:30:38;;;;;;;24.48;16.58;;;20.90;99.90;;;;;;6222289;23;20024;-93
2022/08/23 22:36:10;;;;;;;23.70;15.73;;;20.80;99.90;;;;;;6213416;23;20020;-89
2022/08/23 22:38:51;;;;;;;21.95;15.95;;;20.80;99.90;;;;;;6197590;23;20024;-90
2022/08/23 22:41:35;;;;;;;22.80;15.98;;;20.80;99.90;;;;;;6198926;23;20016;-91
2022/08/23 22:47:29;;;;;;;21.23;14.95;;;20.80;99.90;;;;;;6249422;23;20032;-90
2022/08/23 22:50:03;;;;;;;23.25;15.63;;;20.70;99.90;;;;;;6196970;23;20024;-91
2022/08/23 22:52:43;;;;;;;23.60;16.13;;;20.70;99.90;;;;;;6127061;23;20078;-90
2022/08/23 22:55:28;;;;;;;22.40;15.30;;;20.70;99.90;;;;;;6078652;23;20569;-90
2022/08/23 22:58:38;;;;;;;;;;;;;;;;;;;;;
2022/08/23 23:08:57;;;;;;;24.02;15.77;;;20.60;99.90;;;;;;6249197;22;20031;-89
2022/08/23 23:11:24;;;;;;;23.48;15.95;;;20.60;99.90;;;;;;6198394;23;20016;-90
2022/08/23 23:14:02;;;;;;;20.33;14.07;;;20.60;99.90;;;;;;6198085;23;20031;-90
2022/08/23 23:17:17;;;;;;;21.67;14.13;;;20.60;99.90;;;;;;6197881;23;20016;-89
2022/08/23 23:22:52;;;;;;;18.98;13.27;;;20.60;99.90;;;;;;6221028;23;20073;-89
2022/08/23 23:25:17;;;;;;;19.95;14.60;;;20.60;99.90;;;;;;6196566;23;20022;-89
2022/08/23 23:27:43;;;;;;;18.98;13.73;;;20.50;99.90;;;;;;6196010;23;20062;-88
2022/08/23 23:30:10;;;;;;;21.88;14.98;;;20.50;99.90;;;;;;6196202;23;20027;-89
2022/08/23 23:32:51;;;;;;;;;;;20.40;99.90;;;;;;6221707;23;20098;-90
2022/08/23 23:35:20;;;;;;;19.63;14.52;;;20.40;99.90;;;;;;6195364;23;19962;-89
2022/08/23 23:38:09;;;;;;;23.75;15.70;;;20.30;99.90;;;;;;6197236;23;20016;-90
2022/08/23 23:40:36;;;;;;;22.65;14.98;;;20.30;99.90;;;;;;6221353;23;20468;-91
2022/08/23 23:43:02;;;;;;;20.25;14.68;;;20.10;99.90;;;;;;6196312;23;20062;-90
2022/08/23 23:45:28;;;;;;;22.45;15.02;;;20.10;99.90;;;;;;6196426;23;20020;-90
2022/08/23 23:47:54;;;;;;;21.70;14.43;;;20.10;99.90;;;;;;6196299;23;20150;-90
2022/08/23 23:50:20;;;;;;;22.55;15.35;;;20.00;99.90;;;;;;6196228;23;20055;-90
2022/08/23 23:52:46;;;;;;;23.23;14.73;;;20.00;99.90;;;;;;6196131;23;20027;-90
2022/08/23 23:55:16;;;;;;;21.27;14.52;;;20.10;99.90;;;;;;6196303;23;20027;-89
2022/08/23 23:57:45;;;;;;;20.98;14.85;;;20.00;99.90;;;;;;6196275;23;20020;-91
